sensor_id;sensor_type;location;lat;lon;timestamp;pressure;altitude;pressure_sealevel;temperature;humidity
53960;BME280;39866;48.638;-2.020;2023-02-01T00:02:17;102840.47;;;14.17;55.44
53960;BME280;39866;48.638;-2.020;2023-02-01T00:04:42;102843.97;;;14.23;55.61
53960;BME280;39866;48.638;-2.020;2023-02-01T00:07:07;102844.06;;;14.14;55.44
53960;BME280;39866;48.638;-2.020;2023-02-01T00:09:33;102838.69;;;14.17;55.77
53960;BME280;39866;48.638;-2.020;2023-02-01T00:11:58;102842.41;;;14.02;56.03
53960;BME280;39866;48.638;-2.020;2023-02-01T00:14:27;102836.03;;;14.14;55.97
53960;BME280;39866;48.638;-2.020;2023-02-01T00:16:52;102825.31;;;14.14;56.15
53960;BME280;39866;48.638;-2.020;2023-02-01T00:19:17;102837.06;;;14.01;56.32
53960;BME280;39866;48.638;-2.020;2023-02-01T00:21:43;102846.75;;;14.14;56.72
53960;BME280;39866;48.638;-2.020;2023-02-01T00:24:10;102832.59;;;14.00;57.51
53960;BME280;39866;48.638;-2.020;2023-02-01T00:26:38;102842.31;;;14.10;57.45
53960;BME280;39866;48.638;-2.020;2023-02-01T00:29:06;102844.38;;;13.82;58.78
53960;BME280;39866;48.638;-2.020;2023-02-01T00:31:32;102847.88;;;13.90;59.11
53960;BME280;39866;48.638;-2.020;2023-02-01T00:33:58;102837.94;;;14.00;59.11
53960;BME280;39866;48.638;-2.020;2023-02-01T00:36:23;102836.06;;;14.08;60.11
53960;BME280;39866;48.638;-2.020;2023-02-01T00:38:49;102833.44;;;14.03;59.17
53960;BME280;39866;48.638;-2.020;2023-02-01T00:41:17;102835.38;;;13.92;58.07
53960;BME280;39866;48.638;-2.020;2023-02-01T00:43:43;102839.19;;;13.60;57.49
53960;BME280;39866;48.638;-2.020;2023-02-01T00:46:09;102839.16;;;13.65;55.84
53960;BME280;39866;48.638;-2.020;2023-02-01T00:48:35;102837.31;;;13.73;54.88
53960;BME280;39866;48.638;-2.020;2023-02-01T00:51:02;102842.56;;;13.82;55.04
53960;BME280;39866;48.638;-2.020;2023-02-01T00:53:28;102846.19;;;13.78;54.70
53960;BME280;39866;48.638;-2.020;2023-02-01T00:55:54;102837.31;;;13.70;54.74
53960;BME280;39866;48.638;-2.020;2023-02-01T00:58:19;102840.03;;;13.66;55.17
53960;BME280;39866;48.638;-2.020;2023-02-01T01:00:45;102847.81;;;13.98;54.45
53960;BME280;39866;48.638;-2.020;2023-02-01T01:03:11;102850.47;;;13.98;55.52
53960;BME280;39866;48.638;-2.020;2023-02-01T01:05:49;102849.72;;;13.85;56.12
53960;BME280;39866;48.638;-2.020;2023-02-01T01:08:15;102836.50;;;13.62;55.82
53960;BME280;39866;48.638;-2.020;2023-02-01T01:10:42;102849.78;;;13.77;54.19
53960;BME280;39866;48.638;-2.020;2023-02-01T01:13:08;102848.81;;;13.84;54.23
53960;BME280;39866;48.638;-2.020;2023-02-01T01:15:38;102850.47;;;13.98;54.68
53960;BME280;39866;48.638;-2.020;2023-02-01T01:18:04;102842.47;;;13.92;54.69
53960;BME280;39866;48.638;-2.020;2023-02-01T01:20:29;102841.66;;;13.83;53.61
53960;BME280;39866;48.638;-2.020;2023-02-01T01:22:55;102839.91;;;13.79;53.88
53960;BME280;39866;48.638;-2.020;2023-02-01T01:25:20;102837.25;;;13.81;53.51
53960;BME280;39866;48.638;-2.020;2023-02-01T01:27:46;102850.63;;;13.79;52.84
53960;BME280;39866;48.638;-2.020;2023-02-01T01:30:11;102847.94;;;13.84;53.33
53960;BME280;39866;48.638;-2.020;2023-02-01T01:32:37;102836.28;;;13.86;52.81
53960;BME280;39866;48.638;-2.020;2023-02-01T01:35:02;102818.56;;;13.76;53.20
53960;BME280;39866;48.638;-2.020;2023-02-01T01:37:28;102829.22;;;13.79;53.13
53960;BME280;39866;48.638;-2.020;2023-02-01T01:39:53;102820.25;;;13.85;53.91
53960;BME280;39866;48.638;-2.020;2023-02-01T01:42:21;102811.50;;;13.63;53.58
53960;BME280;39866;48.638;-2.020;2023-02-01T01:45:02;102831.66;;;14.05;53.93
53960;BME280;39866;48.638;-2.020;2023-02-01T01:47:39;102843.31;;;14.00;55.03
53960;BME280;39866;48.638;-2.020;2023-02-01T01:50:08;102830.91;;;13.90;55.17
53960;BME280;39866;48.638;-2.020;2023-02-01T01:52:36;102845.38;;;13.67;56.34
53960;BME280;39866;48.638;-2.020;2023-02-01T01:55:03;102839.38;;;13.36;56.67
53960;BME280;39866;48.638;-2.020;2023-02-01T01:57:33;102863.47;;;13.34;56.28
53960;BME280;39866;48.638;-2.020;2023-02-01T02:00:05;102860.53;;;13.73;53.18
53960;BME280;39866;48.638;-2.020;2023-02-01T02:02:32;102852.63;;;13.53;53.06
53960;BME280;39866;48.638;-2.020;2023-02-01T02:04:58;102870.31;;;13.77;54.02
53960;BME280;39866;48.638;-2.020;2023-02-01T02:07:29;102880.19;;;13.69;53.92
53960;BME280;39866;48.638;-2.020;2023-02-01T02:09:56;102886.44;;;13.63;53.36
53960;BME280;39866;48.638;-2.020;2023-02-01T02:12:21;102888.34;;;13.52;52.69
53960;BME280;39866;48.638;-2.020;2023-02-01T02:14:47;102889.91;;;13.79;52.97
53960;BME280;39866;48.638;-2.020;2023-02-01T02:17:28;102897.06;;;13.75;52.17
53960;BME280;39866;48.638;-2.020;2023-02-01T02:31:08;102888.16;;;13.76;53.69
53960;BME280;39866;48.638;-2.020;2023-02-01T02:33:50;102887.09;;;13.96;54.37
53960;BME280;39866;48.638;-2.020;2023-02-01T02:36:29;102872.00;;;13.85;54.16
53960;BME280;39866;48.638;-2.020;2023-02-01T02:45:02;102865.75;;;13.86;55.52
53960;BME280;39866;48.638;-2.020;2023-02-01T02:48:00;102861.34;;;13.79;55.71
53960;BME280;39866;48.638;-2.020;2023-02-01T02:50:34;102855.94;;;13.85;55.03
53960;BME280;39866;48.638;-2.020;2023-02-01T02:56:20;102864.94;;;13.77;55.00
53960;BME280;39866;48.638;-2.020;2023-02-01T02:59:06;102859.59;;;13.75;55.60
53960;BME280;39866;48.638;-2.020;2023-02-01T03:01:51;102852.53;;;13.65;54.27
53960;BME280;39866;48.638;-2.020;2023-02-01T03:04:36;102848.91;;;13.74;52.89
53960;BME280;39866;48.638;-2.020;2023-02-01T03:13:00;102854.25;;;13.77;55.89
53960;BME280;39866;48.638;-2.020;2023-02-01T03:17:58;102853.19;;;13.92;55.72
53960;BME280;39866;48.638;-2.020;2023-02-01T03:20:25;102859.50;;;13.86;55.47
53960;BME280;39866;48.638;-2.020;2023-02-01T03:22:53;102852.97;;;14.16;55.18
53960;BME280;39866;48.638;-2.020;2023-02-01T03:25:26;102851.19;;;14.17;55.04
53960;BME280;39866;48.638;-2.020;2023-02-01T03:28:03;102859.78;;;13.55;54.79
53960;BME280;39866;48.638;-2.020;2023-02-01T03:30:33;102847.91;;;13.85;53.94
53960;BME280;39866;48.638;-2.020;2023-02-01T03:33:02;102855.97;;;13.79;54.36
53960;BME280;39866;48.638;-2.020;2023-02-01T03:35:39;102846.03;;;13.97;53.88
53960;BME280;39866;48.638;-2.020;2023-02-01T03:38:24;102846.78;;;14.12;53.91
53960;BME280;39866;48.638;-2.020;2023-02-01T03:40:55;102844.97;;;14.11;53.77
53960;BME280;39866;48.638;-2.020;2023-02-01T03:43:24;102854.22;;;13.78;55.59
53960;BME280;39866;48.638;-2.020;2023-02-01T03:45:55;102850.69;;;13.76;56.00
53960;BME280;39866;48.638;-2.020;2023-02-01T03:48:23;102856.84;;;13.84;55.80
53960;BME280;39866;48.638;-2.020;2023-02-01T03:50:52;102863.91;;;13.96;56.10
53960;BME280;39866;48.638;-2.020;2023-02-01T03:53:22;102859.44;;;13.97;56.60
53960;BME280;39866;48.638;-2.020;2023-02-01T03:55:50;102864.25;;;13.52;56.63
53960;BME280;39866;48.638;-2.020;2023-02-01T03:58:18;102857.03;;;13.58;55.49
53960;BME280;39866;48.638;-2.020;2023-02-01T04:00:56;102865.22;;;13.40;55.48
53960;BME280;39866;48.638;-2.020;2023-02-01T04:03:22;102857.09;;;13.51;55.63
53960;BME280;39866;48.638;-2.020;2023-02-01T04:05:49;102860.75;;;13.44;55.91
53960;BME280;39866;48.638;-2.020;2023-02-01T04:08:14;102862.44;;;13.54;56.30
53960;BME280;39866;48.638;-2.020;2023-02-01T04:10:40;102859.78;;;13.51;57.05
53960;BME280;39866;48.638;-2.020;2023-02-01T04:13:05;102852.63;;;13.56;56.46
53960;BME280;39866;48.638;-2.020;2023-02-01T04:15:31;102848.97;;;13.63;55.99
53960;BME280;39866;48.638;-2.020;2023-02-01T04:17:57;102849.94;;;13.54;56.90
53960;BME280;39866;48.638;-2.020;2023-02-01T04:20:22;102850.06;;;13.34;56.96
53960;BME280;39866;48.638;-2.020;2023-02-01T04:22:47;102847.63;;;12.93;57.09
53960;BME280;39866;48.638;-2.020;2023-02-01T04:25:13;102857.28;;;13.25;55.97
53960;BME280;39866;48.638;-2.020;2023-02-01T04:27:38;102857.31;;;13.19;57.06
53960;BME280;39866;48.638;-2.020;2023-02-01T04:30:04;102859.94;;;13.26;56.24
53960;BME280;39866;48.638;-2.020;2023-02-01T04:32:30;102866.13;;;13.39;55.43
53960;BME280;39866;48.638;-2.020;2023-02-01T04:34:55;102859.06;;;13.18;53.60
53960;BME280;39866;48.638;-2.020;2023-02-01T04:37:20;102855.53;;;13.10;54.24
53960;BME280;39866;48.638;-2.020;2023-02-01T04:39:46;102847.50;;;13.16;54.91
53960;BME280;39866;48.638;-2.020;2023-02-01T04:42:11;102859.16;;;13.04;54.06
53960;BME280;39866;48.638;-2.020;2023-02-01T04:44:37;102876.00;;;13.22;54.76
53960;BME280;39866;48.638;-2.020;2023-02-01T04:47:04;102868.84;;;13.31;54.76
53960;BME280;39866;48.638;-2.020;2023-02-01T04:49:30;102856.44;;;13.23;55.27
53960;BME280;39866;48.638;-2.020;2023-02-01T04:51:55;102872.41;;;13.30;55.60
53960;BME280;39866;48.638;-2.020;2023-02-01T04:54:21;102862.59;;;13.35;55.93
53960;BME280;39866;48.638;-2.020;2023-02-01T04:56:46;102872.38;;;13.40;54.81
53960;BME280;39866;48.638;-2.020;2023-02-01T04:59:12;102870.69;;;13.19;55.45
53960;BME280;39866;48.638;-2.020;2023-02-01T05:01:37;102872.38;;;13.40;54.79
53960;BME280;39866;48.638;-2.020;2023-02-01T05:04:03;102869.59;;;13.52;55.40
53960;BME280;39866;48.638;-2.020;2023-02-01T05:06:28;102859.84;;;13.38;56.48
53960;BME280;39866;48.638;-2.020;2023-02-01T05:08:53;102866.97;;;13.43;57.45
53960;BME280;39866;48.638;-2.020;2023-02-01T05:11:19;102860.88;;;13.16;58.75
53960;BME280;39866;48.638;-2.020;2023-02-01T05:14:03;102865.22;;;13.38;58.95
53960;BME280;39866;48.638;-2.020;2023-02-01T05:16:28;102861.69;;;13.30;59.24
53960;BME280;39866;48.638;-2.020;2023-02-01T05:18:53;102862.50;;;13.48;58.75
53960;BME280;39866;48.638;-2.020;2023-02-01T05:21:19;102869.53;;;13.58;58.89
53960;BME280;39866;48.638;-2.020;2023-02-01T05:23:44;102870.44;;;13.57;58.79
53960;BME280;39866;48.638;-2.020;2023-02-01T05:26:28;102879.28;;;13.67;58.65
53960;BME280;39866;48.638;-2.020;2023-02-01T05:28:54;102886.53;;;13.51;59.57
53960;BME280;39866;48.638;-2.020;2023-02-01T05:31:19;102884.72;;;13.54;59.41
53960;BME280;39866;48.638;-2.020;2023-02-01T05:33:45;102884.81;;;13.44;60.02
53960;BME280;39866;48.638;-2.020;2023-02-01T05:36:10;102884.97;;;13.10;60.55
53960;BME280;39866;48.638;-2.020;2023-02-01T05:38:36;102883.19;;;13.12;60.26
53960;BME280;39866;48.638;-2.020;2023-02-01T05:41:01;102886.84;;;12.94;58.94
53960;BME280;39866;48.638;-2.020;2023-02-01T05:43:26;102889.44;;;13.09;58.17
53960;BME280;39866;48.638;-2.020;2023-02-01T05:45:52;102897.47;;;13.08;58.37
53960;BME280;39866;48.638;-2.020;2023-02-01T05:48:18;102892.13;;;13.02;58.18
53960;BME280;39866;48.638;-2.020;2023-02-01T05:50:43;102905.53;;;12.99;57.72
53960;BME280;39866;48.638;-2.020;2023-02-01T05:53:09;102911.72;;;13.10;57.47
53960;BME280;39866;48.638;-2.020;2023-02-01T05:55:34;102897.47;;;13.02;57.69
53960;BME280;39866;48.638;-2.020;2023-02-01T05:58:00;102897.41;;;13.20;57.02
53960;BME280;39866;48.638;-2.020;2023-02-01T06:00:26;102896.75;;;12.66;56.83
53960;BME280;39866;48.638;-2.020;2023-02-01T06:02:51;102886.94;;;12.67;56.24
53960;BME280;39866;48.638;-2.020;2023-02-01T06:05:16;102872.78;;;12.26;55.79
53960;BME280;39866;48.638;-2.020;2023-02-01T06:07:42;102878.00;;;12.78;54.67
53960;BME280;39866;48.638;-2.020;2023-02-01T06:10:08;102866.31;;;12.98;54.21
53960;BME280;39866;48.638;-2.020;2023-02-01T06:12:33;102866.22;;;13.19;54.11
53960;BME280;39866;48.638;-2.020;2023-02-01T06:14:59;102869.06;;;12.76;54.97
53960;BME280;39866;48.638;-2.020;2023-02-01T06:17:24;102872.66;;;12.69;54.99
53960;BME280;39866;48.638;-2.020;2023-02-01T06:19:50;102883.31;;;12.81;54.71
53960;BME280;39866;48.638;-2.020;2023-02-01T06:22:15;102883.09;;;13.36;53.89
53960;BME280;39866;48.638;-2.020;2023-02-01T06:24:40;102857.34;;;13.11;53.14
53960;BME280;39866;48.638;-2.020;2023-02-01T06:27:06;102848.56;;;12.84;52.66
53960;BME280;39866;48.638;-2.020;2023-02-01T06:29:32;102891.19;;;13.23;52.27
53960;BME280;39866;48.638;-2.020;2023-02-01T06:31:57;102898.25;;;13.34;52.23
53960;BME280;39866;48.638;-2.020;2023-02-01T06:34:23;102902.59;;;13.52;51.97
53960;BME280;39866;48.638;-2.020;2023-02-01T06:36:48;102889.38;;;13.22;52.54
53960;BME280;39866;48.638;-2.020;2023-02-01T06:39:14;102899.88;;;13.60;51.36
53960;BME280;39866;48.638;-2.020;2023-02-01T06:41:42;102899.81;;;13.66;52.08
53960;BME280;39866;48.638;-2.020;2023-02-01T06:44:07;102902.53;;;13.65;52.32
53960;BME280;39866;48.638;-2.020;2023-02-01T06:46:33;102903.47;;;13.54;52.63
53960;BME280;39866;48.638;-2.020;2023-02-01T06:48:58;102907.72;;;13.84;52.60
53960;BME280;39866;48.638;-2.020;2023-02-01T06:51:25;102904.19;;;13.79;52.42
53960;BME280;39866;48.638;-2.020;2023-02-01T06:53:51;102903.19;;;13.94;52.61
53960;BME280;39866;48.638;-2.020;2023-02-01T06:56:17;102904.19;;;13.79;53.12
53960;BME280;39866;48.638;-2.020;2023-02-01T06:58:44;102887.41;;;13.54;53.99
53960;BME280;39866;48.638;-2.020;2023-02-01T07:01:10;102891.81;;;13.65;54.58
53960;BME280;39866;48.638;-2.020;2023-02-01T07:03:35;102882.03;;;13.60;54.52
53960;BME280;39866;48.638;-2.020;2023-02-01T07:06:01;102890.09;;;13.56;54.23
53960;BME280;39866;48.638;-2.020;2023-02-01T07:08:28;102891.84;;;13.58;54.85
53960;BME280;39866;48.638;-2.020;2023-02-01T07:10:53;102874.00;;;13.59;54.93
53960;BME280;39866;48.638;-2.020;2023-02-01T07:13:19;102881.09;;;13.65;55.01
53960;BME280;39866;48.638;-2.020;2023-02-01T07:15:44;102884.69;;;13.59;55.16
53960;BME280;39866;48.638;-2.020;2023-02-01T07:18:13;102884.69;;;13.59;56.20
53960;BME280;39866;48.638;-2.020;2023-02-01T07:20:39;102881.16;;;13.60;56.68
53960;BME280;39866;48.638;-2.020;2023-02-01T07:23:05;102884.81;;;13.44;57.85
53960;BME280;39866;48.638;-2.020;2023-02-01T07:25:30;102886.47;;;13.65;57.69
53960;BME280;39866;48.638;-2.020;2023-02-01T07:27:56;102882.09;;;13.51;58.19
53960;BME280;39866;48.638;-2.020;2023-02-01T07:30:21;102883.84;;;13.57;57.17
53960;BME280;39866;48.638;-2.020;2023-02-01T07:32:46;102886.56;;;13.49;56.58
53960;BME280;39866;48.638;-2.020;2023-02-01T07:35:11;102883.03;;;13.43;56.92
53960;BME280;39866;48.638;-2.020;2023-02-01T07:37:37;102880.34;;;13.44;57.00
53960;BME280;39866;48.638;-2.020;2023-02-01T07:40:02;102888.28;;;13.58;56.13
53960;BME280;39866;48.638;-2.020;2023-02-01T07:42:28;102884.72;;;13.54;56.28
53960;BME280;39866;48.638;-2.020;2023-02-01T07:44:53;102889.28;;;13.45;56.50
53960;BME280;39866;48.638;-2.020;2023-02-01T07:47:18;102883.91;;;13.45;56.63
53960;BME280;39866;48.638;-2.020;2023-02-01T07:49:45;102897.16;;;13.65;56.52
53960;BME280;39866;48.638;-2.020;2023-02-01T07:52:10;102890.97;;;13.56;57.35
53960;BME280;39866;48.638;-2.020;2023-02-01T07:54:38;102890.19;;;13.44;57.32
53960;BME280;39866;48.638;-2.020;2023-02-01T07:57:03;102900.81;;;13.50;56.69
53960;BME280;39866;48.638;-2.020;2023-02-01T07:59:28;102883.81;;;13.60;56.21
53960;BME280;39866;48.638;-2.020;2023-02-01T08:01:54;102895.50;;;13.45;56.11
53960;BME280;39866;48.638;-2.020;2023-02-01T08:04:19;102901.69;;;13.53;56.18
53960;BME280;39866;48.638;-2.020;2023-02-01T08:06:45;102897.25;;;13.51;56.49
53960;BME280;39866;48.638;-2.020;2023-02-01T08:09:10;102903.38;;;13.67;56.27
53960;BME280;39866;48.638;-2.020;2023-02-01T08:11:36;102907.75;;;13.78;56.36
53960;BME280;39866;48.638;-2.020;2023-02-01T08:14:03;102912.34;;;13.61;57.00
53960;BME280;39866;48.638;-2.020;2023-02-01T08:16:28;102910.69;;;13.43;57.76
53960;BME280;39866;48.638;-2.020;2023-02-01T08:18:54;102910.53;;;13.68;57.08
53960;BME280;39866;48.638;-2.020;2023-02-01T08:21:22;102915.84;;;13.71;57.05
53960;BME280;39866;48.638;-2.020;2023-02-01T08:23:49;102922.06;;;13.74;56.91
53960;BME280;39866;48.638;-2.020;2023-02-01T08:26:18;102925.66;;;13.76;57.70
53960;BME280;39866;48.638;-2.020;2023-02-01T08:28:53;102929.22;;;13.71;57.41
53960;BME280;39866;48.638;-2.020;2023-02-01T08:31:20;102920.28;;;13.76;56.15
53960;BME280;39866;48.638;-2.020;2023-02-01T08:33:50;102914.81;;;13.93;54.30
53960;BME280;39866;48.638;-2.020;2023-02-01T08:36:16;102929.09;;;13.91;53.42
53960;BME280;39866;48.638;-2.020;2023-02-01T08:38:41;102927.31;;;13.93;53.23
53960;BME280;39866;48.638;-2.020;2023-02-01T08:41:08;102939.81;;;13.87;52.65
53960;BME280;39866;48.638;-2.020;2023-02-01T08:43:34;102941.56;;;13.96;52.99
53960;BME280;39866;48.638;-2.020;2023-02-01T08:46:00;102948.69;;;13.97;52.64
53960;BME280;39866;48.638;-2.020;2023-02-01T08:48:25;102957.53;;;14.04;52.19
53960;BME280;39866;48.638;-2.020;2023-02-01T08:50:50;102954.28;;;13.65;52.13
53960;BME280;39866;48.638;-2.020;2023-02-01T08:53:16;102944.53;;;13.50;52.91
53960;BME280;39866;48.638;-2.020;2023-02-01T08:55:41;102943.56;;;13.68;52.19
53960;BME280;39866;48.638;-2.020;2023-02-01T08:58:06;102956.00;;;13.71;52.09
53960;BME280;39866;48.638;-2.020;2023-02-01T09:00:32;102957.78;;;13.73;52.33
53960;BME280;39866;48.638;-2.020;2023-02-01T09:02:57;102948.06;;;13.57;52.79
53960;BME280;39866;48.638;-2.020;2023-02-01T09:05:23;102952.38;;;13.79;52.19
53960;BME280;39866;48.638;-2.020;2023-02-01T09:07:52;102952.41;;;13.76;52.42
53960;BME280;39866;48.638;-2.020;2023-02-01T09:10:17;102954.13;;;13.86;52.17
53960;BME280;39866;48.638;-2.020;2023-02-01T09:12:42;102951.53;;;13.76;52.53
53960;BME280;39866;48.638;-2.020;2023-02-01T09:15:08;102965.94;;;13.50;53.51
53960;BME280;39866;48.638;-2.020;2023-02-01T09:17:34;102970.41;;;13.56;53.63
53960;BME280;39866;48.638;-2.020;2023-02-01T09:19:59;102951.63;;;13.59;55.68
53960;BME280;39866;48.638;-2.020;2023-02-01T09:22:24;102952.59;;;13.43;56.03
53960;BME280;39866;48.638;-2.020;2023-02-01T09:24:52;102960.63;;;13.49;56.04
53960;BME280;39866;48.638;-2.020;2023-02-01T09:27:18;102949.94;;;13.44;55.95
53960;BME280;39866;48.638;-2.020;2023-02-01T09:29:43;102942.00;;;13.24;56.50
53960;BME280;39866;48.638;-2.020;2023-02-01T09:32:09;102941.84;;;13.53;56.50
53960;BME280;39866;48.638;-2.020;2023-02-01T09:34:34;102942.69;;;13.58;56.51
53960;BME280;39866;48.638;-2.020;2023-02-01T09:37:00;102950.69;;;13.69;56.67
53960;BME280;39866;48.638;-2.020;2023-02-01T09:39:25;102933.63;;;13.82;56.37
53960;BME280;39866;48.638;-2.020;2023-02-01T09:42:05;102945.25;;;13.80;56.85
53960;BME280;39866;48.638;-2.020;2023-02-01T09:47:26;102947.25;;;13.43;60.11
53960;BME280;39866;48.638;-2.020;2023-02-01T09:50:15;102942.78;;;13.46;60.35
53960;BME280;39866;48.638;-2.020;2023-02-01T09:53:18;102939.16;;;13.56;60.64
53960;BME280;39866;48.638;-2.020;2023-02-01T09:55:49;102941.81;;;13.58;59.80
53960;BME280;39866;48.638;-2.020;2023-02-01T09:58:33;102949.00;;;13.53;58.21
53960;BME280;39866;48.638;-2.020;2023-02-01T10:01:02;102952.69;;;13.27;56.65
53960;BME280;39866;48.638;-2.020;2023-02-01T10:03:30;102954.41;;;13.41;56.03
53960;BME280;39866;48.638;-2.020;2023-02-01T10:06:22;102967.81;;;13.37;56.00
53960;BME280;39866;48.638;-2.020;2023-02-01T10:09:20;102961.41;;;13.63;55.17
53960;BME280;39866;48.638;-2.020;2023-02-01T10:20:26;102984.75;;;13.36;54.43
53960;BME280;39866;48.638;-2.020;2023-02-01T10:26:08;102984.56;;;13.76;53.14
53960;BME280;39866;48.638;-2.020;2023-02-01T10:28:38;102988.91;;;13.90;52.75
53960;BME280;39866;48.638;-2.020;2023-02-01T10:31:05;103000.53;;;13.87;52.49
53960;BME280;39866;48.638;-2.020;2023-02-01T10:33:44;103004.25;;;13.68;52.58
53960;BME280;39866;48.638;-2.020;2023-02-01T10:38:57;103001.44;;;13.83;52.75
53960;BME280;39866;48.638;-2.020;2023-02-01T10:41:25;103004.22;;;13.63;52.85
53960;BME280;39866;48.638;-2.020;2023-02-01T10:43:54;103016.78;;;13.55;53.03
53960;BME280;39866;48.638;-2.020;2023-02-01T10:46:25;103019.41;;;13.66;52.91
53960;BME280;39866;48.638;-2.020;2023-02-01T10:48:52;103017.66;;;13.57;53.45
53960;BME280;39866;48.638;-2.020;2023-02-01T10:54:11;103011.31;;;13.75;53.35
53960;BME280;39866;48.638;-2.020;2023-02-01T10:56:39;103005.88;;;13.88;52.27
53960;BME280;39866;48.638;-2.020;2023-02-01T10:59:11;102997.03;;;13.80;51.00
53960;BME280;39866;48.638;-2.020;2023-02-01T11:01:41;102989.56;;;14.22;50.71
53960;BME280;39866;48.638;-2.020;2023-02-01T11:04:14;102994.91;;;14.25;50.61
53960;BME280;39866;48.638;-2.020;2023-02-01T11:06:42;102995.78;;;14.24;50.81
53960;BME280;39866;48.638;-2.020;2023-02-01T11:14:20;102978.03;;;14.11;50.31
53960;BME280;39866;48.638;-2.020;2023-02-01T11:16:59;102982.47;;;14.15;49.55
53960;BME280;39866;48.638;-2.020;2023-02-01T11:19:25;102977.97;;;14.22;49.92
53960;BME280;39866;48.638;-2.020;2023-02-01T11:21:52;102975.44;;;14.02;49.97
53960;BME280;39866;48.638;-2.020;2023-02-01T11:24:22;102970.19;;;13.86;49.47
53960;BME280;39866;48.638;-2.020;2023-02-01T11:26:49;102971.03;;;13.93;50.19
53960;BME280;39866;48.638;-2.020;2023-02-01T11:29:17;102984.13;;;14.28;49.80
53960;BME280;39866;48.638;-2.020;2023-02-01T11:31:45;102986.03;;;14.16;49.49
53960;BME280;39866;48.638;-2.020;2023-02-01T11:34:14;102974.50;;;14.07;49.86
53960;BME280;39866;48.638;-2.020;2023-02-01T11:36:41;102980.06;;;13.75;50.55
53960;BME280;39866;48.638;-2.020;2023-02-01T11:39:19;102990.59;;;14.04;50.07
53960;BME280;39866;48.638;-2.020;2023-02-01T11:41:59;102992.47;;;13.92;50.14
53960;BME280;39866;48.638;-2.020;2023-02-01T11:44:39;102983.63;;;13.80;50.69
53960;BME280;39866;48.638;-2.020;2023-02-01T11:47:27;102996.00;;;13.98;50.48
53960;BME280;39866;48.638;-2.020;2023-02-01T11:49:58;102989.78;;;13.96;50.10
53960;BME280;39866;48.638;-2.020;2023-02-01T11:58:12;102980.06;;;13.78;51.02
53960;BME280;39866;48.638;-2.020;2023-02-01T12:06:25;102976.38;;;13.98;49.85
53960;BME280;39866;48.638;-2.020;2023-02-01T12:32:48;102970.38;;;13.60;50.68
53960;BME280;39866;48.638;-2.020;2023-02-01T12:38:37;102960.28;;;14.01;50.54
53960;BME280;39866;48.638;-2.020;2023-02-01T12:44:08;102934.34;;;14.03;50.33
53960;BME280;39866;48.638;-2.020;2023-02-01T12:46:56;102958.38;;;14.13;50.17
53960;BME280;39866;48.638;-2.020;2023-02-01T12:49:33;102960.91;;;14.30;49.91
53960;BME280;39866;48.638;-2.020;2023-02-01T12:52:03;102955.47;;;14.40;48.90
53960;BME280;39866;48.638;-2.020;2023-02-01T12:57:00;102943.94;;;14.30;49.24
53960;BME280;39866;48.638;-2.020;2023-02-01T12:59:42;102951.00;;;14.42;49.45
53960;BME280;39866;48.638;-2.020;2023-02-01T13:02:22;102954.53;;;14.44;49.29
53960;BME280;39866;48.638;-2.020;2023-02-01T13:10:18;102962.94;;;14.01;50.26
53960;BME280;39866;48.638;-2.020;2023-02-01T13:15:24;102959.28;;;14.11;50.47
53960;BME280;39866;48.638;-2.020;2023-02-01T13:17:52;102950.56;;;13.84;51.57
53960;BME280;39866;48.638;-2.020;2023-02-01T13:20:35;102953.00;;;14.12;50.73
53960;BME280;39866;48.638;-2.020;2023-02-01T13:25:41;102950.66;;;13.72;51.77
53960;BME280;39866;48.638;-2.020;2023-02-01T13:28:16;102947.94;;;13.75;52.04
53960;BME280;39866;48.638;-2.020;2023-02-01T13:31:59;102955.00;;;13.90;52.23
53960;BME280;39866;48.638;-2.020;2023-02-01T13:37:23;102951.50;;;13.80;51.29
53960;BME280;39866;48.638;-2.020;2023-02-01T13:39:59;102940.81;;;13.74;51.66
53960;BME280;39866;48.638;-2.020;2023-02-01T13:42:29;102938.16;;;13.71;52.12
53960;BME280;39866;48.638;-2.020;2023-02-01T13:45:02;102933.56;;;13.90;51.94
53960;BME280;39866;48.638;-2.020;2023-02-01T13:47:38;102935.41;;;13.79;51.23
53960;BME280;39866;48.638;-2.020;2023-02-01T13:50:16;102926.59;;;13.66;51.43
53960;BME280;39866;48.638;-2.020;2023-02-01T13:52:45;102942.41;;;14.01;50.88
53960;BME280;39866;48.638;-2.020;2023-02-01T13:57:46;102924.56;;;13.99;50.96
53960;BME280;39866;48.638;-2.020;2023-02-01T14:00:34;102929.75;;;14.19;50.85
53960;BME280;39866;48.638;-2.020;2023-02-01T14:10:55;102913.66;;;14.22;50.67
53960;BME280;39866;48.638;-2.020;2023-02-01T14:13:41;102918.81;;;14.40;50.45
53960;BME280;39866;48.638;-2.020;2023-02-01T14:21:33;102903.06;;;14.06;52.11
53960;BME280;39866;48.638;-2.020;2023-02-01T14:26:46;102917.28;;;14.18;52.08
53960;BME280;39866;48.638;-2.020;2023-02-01T14:32:14;102923.53;;;14.15;52.27
53960;BME280;39866;48.638;-2.020;2023-02-01T14:47:45;102915.06;;;13.58;54.58
53960;BME280;39866;48.638;-2.020;2023-02-01T14:53:02;102918.63;;;13.60;54.60
53960;BME280;39866;48.638;-2.020;2023-02-01T14:58:02;102920.28;;;13.76;53.33
53960;BME280;39866;48.638;-2.020;2023-02-01T15:00:29;102916.13;;;13.28;54.32
53960;BME280;39866;48.638;-2.020;2023-02-01T15:05:55;102927.59;;;13.50;54.43
53960;BME280;39866;48.638;-2.020;2023-02-01T15:08:26;102930.22;;;13.57;54.31
53960;BME280;39866;48.638;-2.020;2023-02-01T15:10:54;102932.72;;;13.83;54.14
53960;BME280;39866;48.638;-2.020;2023-02-01T15:13:25;102931.88;;;13.77;54.43
53960;BME280;39866;48.638;-2.020;2023-02-01T15:18:35;102936.41;;;13.69;55.68
53960;BME280;39866;48.638;-2.020;2023-02-01T15:21:03;102941.88;;;13.49;56.78
53960;BME280;39866;48.638;-2.020;2023-02-01T15:23:28;102933.78;;;13.59;57.01
53960;BME280;39866;48.638;-2.020;2023-02-01T15:25:54;102927.66;;;13.37;57.91
53960;BME280;39866;48.638;-2.020;2023-02-01T15:28:20;102944.50;;;13.56;57.72